createdAt,value
2022-11-05T00:00:16.918Z,94.09
2022-11-05T00:03:02.152Z,94.38
2022-11-05T00:05:47.618Z,94.20
2022-11-05T00:08:33.650Z,94.70
2022-11-05T00:11:02.994Z,96.31
2022-11-05T00:13:48.561Z,96.19
2022-11-05T00:16:36.493Z,95.32
2022-11-05T00:19:10.271Z,94.46
2022-11-05T00:21:57.376Z,95.05
2022-11-05T00:24:43.313Z,93.91
2022-11-05T00:27:12.917Z,93.88
2022-11-05T00:29:40.888Z,94.29
2022-11-05T00:32:08.857Z,94.66
2022-11-05T00:34:36.806Z,94.71
2022-11-05T00:37:04.817Z,94.96
2022-11-05T00:39:32.798Z,95.15
2022-11-05T00:42:14.571Z,94.88
2022-11-05T00:45:01.066Z,94.73
2022-11-05T00:47:46.730Z,95.14
2022-11-05T00:50:14.928Z,94.21
2022-11-05T00:52:59.262Z,94.06
2022-11-05T00:55:30.313Z,93.79
2022-11-05T00:57:58.952Z,94.11
2022-11-05T01:00:30.323Z,94.23
2022-11-05T01:02:59.718Z,94.50
2022-11-05T01:05:28.136Z,94.25
2022-11-05T01:07:56.146Z,93.66
2022-11-05T01:10:25.364Z,93.20
2022-11-05T01:12:53.514Z,93.27
2022-11-05T01:15:22.091Z,93.61
2022-11-05T01:17:51.804Z,92.93
2022-11-05T01:20:20.018Z,93.63
2022-11-05T01:22:47.935Z,93.60
2022-11-05T01:25:15.890Z,94.23
2022-11-05T01:27:43.822Z,94.41
2022-11-05T01:30:12.999Z,95.17
2022-11-05T01:32:41.009Z,94.88
2022-11-05T01:35:14.119Z,94.53
2022-11-05T01:37:42.068Z,94.02
2022-11-05T01:40:13.597Z,93.52
2022-11-05T01:42:41.613Z,94.49
2022-11-05T01:45:16.092Z,94.43
2022-11-05T01:47:59.503Z,94.07
2022-11-05T01:50:50.144Z,94.42
2022-11-05T01:53:23.591Z,94.95
2022-11-05T01:55:56.796Z,94.96
2022-11-05T01:58:29.898Z,95.49
2022-11-05T02:00:58.454Z,95.02
2022-11-05T02:03:27.254Z,95.02
2022-11-05T02:05:58.575Z,94.76
2022-11-05T02:08:38.858Z,95.03
2022-11-05T02:11:06.860Z,94.80
2022-11-05T02:13:34.772Z,94.92
2022-11-05T02:16:10.861Z,95.29
2022-11-05T02:18:58.559Z,95.57
2022-11-05T02:21:48.278Z,95.14
2022-11-05T02:24:54.855Z,95.45
2022-11-05T02:27:38.809Z,95.19
2022-11-05T02:30:33.686Z,95.75
2022-11-05T02:33:20.969Z,95.24
2022-11-05T02:36:02.768Z,95.09
2022-11-05T02:38:42.389Z,94.89
2022-11-05T02:41:19.632Z,94.98
2022-11-05T02:43:57.500Z,95.39
2022-11-05T02:46:38.798Z,95.21
2022-11-05T02:49:14.630Z,95.33
2022-11-05T02:51:49.257Z,96.34
2022-11-05T02:54:20.730Z,97.82
2022-11-05T02:56:52.904Z,97.98
2022-11-05T02:59:20.892Z,97.62
2022-11-05T03:01:52.367Z,98.44
2022-11-05T03:04:23.266Z,99.12
2022-11-05T03:07:13.397Z,99.23
2022-11-05T03:10:12.761Z,98.63
2022-11-05T03:12:53.042Z,99.75
2022-11-05T03:15:31.302Z,100.00
2022-11-05T03:18:07.386Z,99.90
2022-11-05T03:20:38.857Z,99.17
2022-11-05T03:23:13.608Z,98.42
2022-11-05T03:25:48.769Z,98.17
2022-11-05T03:28:21.112Z,97.41
2022-11-05T03:30:52.419Z,97.57
2022-11-05T03:33:25.564Z,97.06
2022-11-05T03:35:56.416Z,97.34
2022-11-05T03:38:29.115Z,97.15
2022-11-05T03:41:00.129Z,97.41
2022-11-05T03:43:36.491Z,97.88
2022-11-05T03:46:09.289Z,97.25
2022-11-05T03:48:42.750Z,96.83
2022-11-05T03:51:18.911Z,96.86
2022-11-05T03:53:51.128Z,96.68
2022-11-05T03:56:24.993Z,96.29
2022-11-05T03:58:58.701Z,96.01
2022-11-05T04:01:28.017Z,96.54
2022-11-05T04:03:57.495Z,96.12
2022-11-05T04:06:42.949Z,95.83
2022-11-05T04:09:28.980Z,96.75
2022-11-05T04:12:14.441Z,97.24
2022-11-05T04:14:42.423Z,97.02
2022-11-05T04:17:09.924Z,97.53
2022-11-05T04:19:58.013Z,97.74
2022-11-05T04:22:45.095Z,98.83
2022-11-05T04:25:13.640Z,99.64
2022-11-05T04:27:41.514Z,99.59
2022-11-05T04:30:21.773Z,99.22
2022-11-05T04:33:00.922Z,98.85
2022-11-05T04:35:32.628Z,98.34
2022-11-05T04:38:00.571Z,97.88
2022-11-05T04:40:28.832Z,97.89
2022-11-05T04:42:57.748Z,97.60
2022-11-05T04:45:27.655Z,97.96
2022-11-05T04:47:55.623Z,99.95
2022-11-05T04:50:23.834Z,100.00
2022-11-05T04:52:53.325Z,100.00
2022-11-05T04:55:21.509Z,100.00
2022-11-05T04:57:50.542Z,100.00
2022-11-05T05:00:19.675Z,99.25
2022-11-05T05:02:48.057Z,98.64
2022-11-05T05:05:16.569Z,97.59
2022-11-05T05:07:44.505Z,98.11
2022-11-05T05:10:14.287Z,98.37
2022-11-05T05:12:42.207Z,98.17
2022-11-05T05:15:11.022Z,98.44
2022-11-05T05:17:38.963Z,98.71
2022-11-05T05:20:25.480Z,98.44
2022-11-05T05:22:54.209Z,98.24
2022-11-05T05:25:24.188Z,98.39
2022-11-05T05:27:52.203Z,98.10
2022-11-05T05:30:20.241Z,98.10
2022-11-05T05:32:48.317Z,98.14
2022-11-05T05:35:16.417Z,98.88
2022-11-05T05:37:44.805Z,99.70
2022-11-05T05:40:12.878Z,99.24
2022-11-05T05:42:43.593Z,98.75
2022-11-05T05:45:12.687Z,98.63
2022-11-05T05:47:40.862Z,98.78
2022-11-05T05:50:09.221Z,99.19
2022-11-05T05:52:37.339Z,99.15
2022-11-05T05:55:05.727Z,98.89
2022-11-05T05:57:34.737Z,99.09
2022-11-05T06:00:05.190Z,98.49
2022-11-05T06:02:39.833Z,98.86
2022-11-05T06:05:08.445Z,98.47
2022-11-05T06:07:37.584Z,97.43
2022-11-05T06:10:06.298Z,97.38
2022-11-05T06:12:34.253Z,97.16
2022-11-05T06:15:03.938Z,97.01
2022-11-05T06:17:31.920Z,96.82
2022-11-05T06:19:59.851Z,97.02
2022-11-05T06:22:27.762Z,97.55
2022-11-05T06:24:55.639Z,97.50
2022-11-05T06:27:23.542Z,98.06
2022-11-05T06:29:51.494Z,98.22
2022-11-05T06:32:20.840Z,97.65
2022-11-05T06:34:48.810Z,97.58
2022-11-05T06:37:16.862Z,98.01
2022-11-05T06:39:44.920Z,97.36
2022-11-05T06:42:18.364Z,97.70
2022-11-05T06:44:47.069Z,97.44
2022-11-05T06:47:14.977Z,97.30
2022-11-05T06:49:44.220Z,97.14
2022-11-05T06:52:12.237Z,97.28
2022-11-05T06:54:40.823Z,97.64
2022-11-05T06:57:09.975Z,97.83
2022-11-05T06:59:38.138Z,99.31
2022-11-05T07:02:06.642Z,99.83
2022-11-05T07:04:34.791Z,100.00
2022-11-05T07:07:04.138Z,99.81
2022-11-05T07:09:32.089Z,99.71
2022-11-05T07:12:00.028Z,100.00
2022-11-05T07:14:27.922Z,100.00
2022-11-05T07:16:57.610Z,100.00
2022-11-05T07:19:25.573Z,100.00
2022-11-05T07:21:53.480Z,98.85
2022-11-05T07:24:22.758Z,98.56
2022-11-05T07:26:50.640Z,98.23
2022-11-05T07:29:18.553Z,98.04
2022-11-05T07:31:47.504Z,97.54
2022-11-05T07:34:15.547Z,97.30
2022-11-05T07:36:43.439Z,98.32
2022-11-05T07:39:11.363Z,98.61
2022-11-05T07:41:40.726Z,97.65
2022-11-05T07:44:08.686Z,97.63
2022-11-05T07:46:36.643Z,97.86
2022-11-05T07:49:04.834Z,98.11
2022-11-05T07:51:32.734Z,97.97
2022-11-05T07:54:00.637Z,98.65
2022-11-05T07:56:28.556Z,97.49
2022-11-05T07:58:57.841Z,98.34
2022-11-05T08:01:25.914Z,99.13
2022-11-05T08:03:54.006Z,98.40
2022-11-05T08:06:22.016Z,98.97
2022-11-05T08:08:49.881Z,100.00
2022-11-05T08:11:18.892Z,100.00
2022-11-05T08:13:46.830Z,100.00
2022-11-05T08:16:16.549Z,100.00
2022-11-05T08:18:44.726Z,100.00
2022-11-05T08:21:12.695Z,100.00
2022-11-05T08:23:42.520Z,100.00
2022-11-05T08:26:11.572Z,99.88
2022-11-05T08:28:39.493Z,99.96
2022-11-05T08:31:07.430Z,100.00
2022-11-05T08:33:36.736Z,100.00
2022-11-05T08:36:05.519Z,100.00
2022-11-05T08:38:33.424Z,100.00
2022-11-05T08:41:01.790Z,100.00
2022-11-05T08:43:29.735Z,100.00
2022-11-05T08:45:57.719Z,99.87
2022-11-05T08:48:25.606Z,99.04
2022-11-05T08:50:54.894Z,96.50
2022-11-05T08:53:22.841Z,96.33
2022-11-05T08:55:51.552Z,95.79
2022-11-05T08:58:20.793Z,95.42
2022-11-05T09:00:50.645Z,94.06
2022-11-05T09:03:18.906Z,93.28
2022-11-05T09:05:46.891Z,93.54
2022-11-05T09:08:18.471Z,93.01
2022-11-05T09:10:47.798Z,92.92
2022-11-05T09:13:19.455Z,91.70
2022-11-05T09:15:49.034Z,91.81
2022-11-05T09:18:17.840Z,90.87
2022-11-05T09:20:46.235Z,90.65
2022-11-05T09:23:17.008Z,90.76
2022-11-05T09:25:45.828Z,89.68
2022-11-05T09:28:17.111Z,90.03
2022-11-05T09:30:47.496Z,89.64
2022-11-05T09:33:17.209Z,88.39
2022-11-05T09:35:45.464Z,89.51
2022-11-05T09:38:13.552Z,90.08
2022-11-05T09:40:49.685Z,90.95
2022-11-05T09:43:21.281Z,90.48
2022-11-05T09:45:52.485Z,90.08
2022-11-05T09:48:24.772Z,89.55
2022-11-05T09:50:54.431Z,89.79
2022-11-05T09:53:24.453Z,90.18
2022-11-05T09:55:57.797Z,89.54
2022-11-05T09:58:38.222Z,87.70
2022-11-05T10:01:12.322Z,88.36
2022-11-05T10:03:45.839Z,89.29
2022-11-05T10:06:22.995Z,88.69
2022-11-05T10:08:55.786Z,87.68
2022-11-05T10:11:36.467Z,87.14
2022-11-05T10:14:09.658Z,86.10
2022-11-05T10:16:40.759Z,86.89
2022-11-05T10:19:14.670Z,87.47
2022-11-05T10:22:05.683Z,85.31
2022-11-05T10:24:32.019Z,85.25
2022-11-05T10:27:01.444Z,83.84
2022-11-05T10:29:32.511Z,82.69
2022-11-05T10:32:05.560Z,81.98
2022-11-05T10:34:36.206Z,82.68
2022-11-05T10:37:04.578Z,81.44
2022-11-05T10:39:34.491Z,80.95
2022-11-05T10:42:34.500Z,78.72
2022-11-05T10:45:09.839Z,81.16
2022-11-05T10:47:52.853Z,80.30
2022-11-05T10:50:24.489Z,78.91
2022-11-05T10:52:58.136Z,77.36
2022-11-05T10:55:29.069Z,76.34
2022-11-05T10:58:09.079Z,77.52
2022-11-05T11:00:37.089Z,79.38
2022-11-05T11:03:07.523Z,80.83
2022-11-05T11:05:38.328Z,81.57
2022-11-05T11:08:22.953Z,81.44
2022-11-05T11:10:53.560Z,84.26
2022-11-05T11:13:25.420Z,81.85
2022-11-05T11:15:53.787Z,79.78
2022-11-05T11:18:30.908Z,78.76
2022-11-05T11:21:13.777Z,73.23
2022-11-05T11:23:43.274Z,76.17
2022-11-05T11:26:12.783Z,74.94
2022-11-05T11:28:47.235Z,75.32
2022-11-05T11:31:17.977Z,75.92
2022-11-05T11:33:48.894Z,75.94
2022-11-05T11:36:19.589Z,76.29
2022-11-05T11:38:47.743Z,76.10
2022-11-05T11:41:26.710Z,76.00
2022-11-05T11:44:00.609Z,75.79
2022-11-05T11:46:34.020Z,75.44
2022-11-05T11:49:02.489Z,74.66
2022-11-05T11:51:37.675Z,74.39
2022-11-05T11:54:06.375Z,75.51
2022-11-05T11:56:45.120Z,74.90
2022-11-05T11:59:40.563Z,73.21
2022-11-05T12:02:32.077Z,73.62
2022-11-05T12:05:18.906Z,70.23
2022-11-05T12:07:52.948Z,72.40
2022-11-05T12:10:40.459Z,69.46
2022-11-05T12:13:29.640Z,68.52
2022-11-05T12:16:06.689Z,70.05
2022-11-05T12:18:44.250Z,67.23
2022-11-05T12:21:40.732Z,70.14
2022-11-05T12:24:22.212Z,68.46
2022-11-05T12:27:03.532Z,68.14
2022-11-05T12:29:52.116Z,68.43
2022-11-05T12:32:47.956Z,67.39
2022-11-05T12:35:30.731Z,69.01
2022-11-05T12:38:10.327Z,68.94
2022-11-05T12:40:52.424Z,68.02
2022-11-05T12:43:27.158Z,69.14
2022-11-05T12:46:03.528Z,69.75
2022-11-05T12:48:53.060Z,68.45
2022-11-05T12:51:35.164Z,69.10
2022-11-05T12:54:13.926Z,67.43
2022-11-05T12:56:46.451Z,67.78
2022-11-05T12:59:22.264Z,67.21
2022-11-05T13:01:55.542Z,67.80
2022-11-05T13:04:35.591Z,67.31
2022-11-05T13:07:07.773Z,67.57
2022-11-05T13:09:42.390Z,68.01
2022-11-05T13:12:14.541Z,67.21
2022-11-05T13:14:46.661Z,66.64
2022-11-05T13:17:17.669Z,66.61
2022-11-05T13:19:52.621Z,63.38
2022-11-05T13:22:34.364Z,63.63
2022-11-05T13:25:07.228Z,64.49
2022-11-05T13:28:03.524Z,62.63
2022-11-05T13:30:34.750Z,65.13
2022-11-05T13:33:07.381Z,67.91
2022-11-05T13:35:44.574Z,67.77
2022-11-05T13:38:54.520Z,65.53
2022-11-05T13:41:32.661Z,65.94
2022-11-05T13:44:24.726Z,66.15
2022-11-05T13:47:19.392Z,65.81
2022-11-05T13:50:16.757Z,65.90
2022-11-05T13:53:04.880Z,65.57
2022-11-05T13:55:57.985Z,66.64
2022-11-05T13:58:48.419Z,65.98
2022-11-05T14:01:28.041Z,67.56
2022-11-05T14:03:57.554Z,66.92
2022-11-05T14:06:29.312Z,66.16
2022-11-05T14:09:03.970Z,64.57
2022-11-05T14:11:35.279Z,63.91
2022-11-05T14:14:06.137Z,64.31
2022-11-05T14:16:50.055Z,64.29
2022-11-05T14:19:33.569Z,63.20
2022-11-05T14:22:21.525Z,63.23
2022-11-05T14:24:50.825Z,63.34
2022-11-05T14:27:44.667Z,63.52
2022-11-05T14:30:44.857Z,63.13
2022-11-05T14:33:18.485Z,65.75
2022-11-05T14:35:46.413Z,65.31
2022-11-05T14:38:22.756Z,65.19
2022-11-05T14:41:00.410Z,65.71
2022-11-05T14:43:30.445Z,65.86
2022-11-05T14:46:01.639Z,65.21
2022-11-05T14:48:38.789Z,65.87
2022-11-05T14:51:26.128Z,65.26
2022-11-05T14:54:02.229Z,62.95
2022-11-05T14:56:43.810Z,63.41
2022-11-05T14:59:51.727Z,62.62
2022-11-05T15:02:23.987Z,62.11
2022-11-05T15:04:53.199Z,62.92
2022-11-05T15:07:34.885Z,61.86
2022-11-05T15:10:10.283Z,61.42
2022-11-05T15:12:44.734Z,61.65
2022-11-05T15:15:24.713Z,60.19
2022-11-05T15:18:03.998Z,58.06
2022-11-05T15:20:40.244Z,58.04
2022-11-05T15:23:13.226Z,57.06
2022-11-05T15:25:52.885Z,57.04
2022-11-05T15:28:31.602Z,57.10
2022-11-05T15:31:02.476Z,58.97
2022-11-05T15:33:31.527Z,58.89
2022-11-05T15:36:10.660Z,56.51
2022-11-05T15:38:38.689Z,60.18
2022-11-05T15:41:15.575Z,60.49
2022-11-05T15:43:48.068Z,60.42
2022-11-05T15:46:19.759Z,60.77
2022-11-05T15:48:49.908Z,62.08
2022-11-05T15:51:18.663Z,62.87
2022-11-05T15:57:16.012Z,62.89
2022-11-05T15:59:48.198Z,64.09
2022-11-05T16:02:30.806Z,62.90
2022-11-05T16:05:00.162Z,64.57
2022-11-05T16:07:29.482Z,64.35
2022-11-05T16:10:00.571Z,64.89
2022-11-05T16:12:34.561Z,64.46
2022-11-05T16:15:19.570Z,64.25
2022-11-05T16:17:51.061Z,65.24
2022-11-05T16:20:22.381Z,65.38
2022-11-05T16:22:52.307Z,65.46
2022-11-05T16:25:27.215Z,67.05
2022-11-05T16:27:55.399Z,66.16
2022-11-05T16:30:25.501Z,66.90
2022-11-05T16:32:54.081Z,67.42
2022-11-05T16:35:24.461Z,66.93
2022-11-05T16:37:53.486Z,66.88
2022-11-05T16:40:24.673Z,67.55
2022-11-05T16:42:53.897Z,68.09
2022-11-05T16:45:25.603Z,67.87
2022-11-05T16:47:53.626Z,68.32
2022-11-05T16:50:25.452Z,68.37
2022-11-05T16:52:53.708Z,68.75
2022-11-05T16:55:21.988Z,68.43
2022-11-05T16:57:53.500Z,69.10
2022-11-05T17:00:22.549Z,68.63
2022-11-05T17:02:52.834Z,68.92
2022-11-05T17:05:25.214Z,68.00
2022-11-05T17:07:53.804Z,68.82
2022-11-05T17:10:23.442Z,68.69
2022-11-05T17:12:51.996Z,68.09
2022-11-05T17:15:23.139Z,68.01
2022-11-05T17:17:53.150Z,68.43
2022-11-05T17:20:28.524Z,68.66
2022-11-05T17:22:57.312Z,68.98
2022-11-05T17:25:25.757Z,68.93
2022-11-05T17:27:54.164Z,69.58
2022-11-05T17:30:22.129Z,68.61
2022-11-05T17:32:50.123Z,69.40
2022-11-05T17:35:19.625Z,69.50
2022-11-05T17:37:47.651Z,68.80
2022-11-05T17:40:17.933Z,68.70
2022-11-05T17:42:46.827Z,69.62
2022-11-05T17:45:15.467Z,69.64
2022-11-05T17:47:43.601Z,70.23
2022-11-05T17:50:16.286Z,70.28
2022-11-05T17:52:45.978Z,71.29
2022-11-05T17:55:17.694Z,71.21
2022-11-05T17:57:47.388Z,70.84
2022-11-05T18:00:17.111Z,71.52
2022-11-05T18:02:46.246Z,71.16
2022-11-05T18:05:14.423Z,72.41
2022-11-05T18:07:42.711Z,72.28
2022-11-05T18:10:12.562Z,72.14
2022-11-05T18:12:40.972Z,72.21
2022-11-05T18:15:09.766Z,71.91
2022-11-05T18:17:38.199Z,72.23
2022-11-05T18:20:11.646Z,72.30
2022-11-05T18:22:43.120Z,71.94
2022-11-05T18:25:13.760Z,72.18
2022-11-05T18:27:42.043Z,72.42
2022-11-05T18:30:14.024Z,71.95
2022-11-05T18:32:42.274Z,73.78
2022-11-05T18:35:10.813Z,74.64
2022-11-05T18:37:39.740Z,77.04
2022-11-05T18:40:09.095Z,76.93
2022-11-05T18:42:38.619Z,77.45
2022-11-05T18:45:07.740Z,77.75
2022-11-05T18:47:35.834Z,78.22
2022-11-05T18:50:03.949Z,78.38
2022-11-05T18:52:32.892Z,77.70
2022-11-05T18:55:01.115Z,79.39
2022-11-05T18:57:29.354Z,79.14
2022-11-05T18:59:58.729Z,79.66
2022-11-05T19:02:26.739Z,79.76
2022-11-05T19:05:26.700Z,79.81
2022-11-05T19:07:42.646Z,80.56
2022-11-05T19:10:10.714Z,79.77
2022-11-05T19:12:38.692Z,79.76
2022-11-05T19:15:09.424Z,80.88
2022-11-05T19:17:37.914Z,81.19
2022-11-05T19:20:07.465Z,81.41
2022-11-05T19:22:35.363Z,81.65
2022-11-05T19:25:03.314Z,80.71
2022-11-05T19:27:31.229Z,81.05
2022-11-05T19:29:59.213Z,81.33
2022-11-05T19:32:28.505Z,81.40
2022-11-05T19:34:56.455Z,80.89
2022-11-05T19:37:24.328Z,81.13
2022-11-05T19:39:52.234Z,81.15
2022-11-05T19:42:20.196Z,81.70
2022-11-05T19:44:48.089Z,80.90
2022-11-05T19:47:16.066Z,81.66
2022-11-05T19:49:45.349Z,81.51
2022-11-05T19:52:13.322Z,81.87
2022-11-05T19:54:41.481Z,81.31
2022-11-05T19:57:09.429Z,81.64
2022-11-05T19:59:37.368Z,81.63
2022-11-05T20:02:06.074Z,81.21
2022-11-05T20:04:35.422Z,82.26
2022-11-05T20:07:04.767Z,82.25
2022-11-05T20:09:32.629Z,82.38
2022-11-05T20:12:00.546Z,82.52
2022-11-05T20:14:29.736Z,82.03
2022-11-05T20:16:58.379Z,82.13
2022-11-05T20:19:26.268Z,83.00
2022-11-05T20:21:54.330Z,82.23
2022-11-05T20:24:25.522Z,83.35
2022-11-05T20:26:54.519Z,83.60
2022-11-05T20:29:22.961Z,83.74
2022-11-05T20:31:51.483Z,83.78
2022-11-05T20:34:19.398Z,84.76
2022-11-05T20:36:47.335Z,84.67
2022-11-05T20:39:15.458Z,84.72
2022-11-05T20:41:45.072Z,84.55
2022-11-05T20:44:13.061Z,85.40
2022-11-05T20:46:41.433Z,85.08
2022-11-05T20:49:09.350Z,85.40
2022-11-05T20:51:37.321Z,85.51
2022-11-05T20:54:05.696Z,85.12
2022-11-05T20:56:35.798Z,85.08
2022-11-05T20:59:05.796Z,85.09
2022-11-05T21:01:35.117Z,84.99
2022-11-05T21:04:04.271Z,85.23
2022-11-05T21:06:33.733Z,86.16
2022-11-05T21:09:01.788Z,86.26
2022-11-05T21:11:49.880Z,86.06
2022-11-05T21:14:19.680Z,85.55
2022-11-05T21:16:47.589Z,84.98
2022-11-05T21:19:16.257Z,85.55
2022-11-05T21:21:44.223Z,85.59
2022-11-05T21:24:12.113Z,85.40
2022-11-05T21:26:40.153Z,84.84
2022-11-05T21:29:08.514Z,83.81
2022-11-05T21:31:38.550Z,84.15
2022-11-05T21:34:06.533Z,84.52
2022-11-05T21:36:34.787Z,84.55
2022-11-05T21:39:02.915Z,84.99
2022-11-05T21:41:30.936Z,84.55
2022-11-05T21:43:59.011Z,84.88
2022-11-05T21:46:26.981Z,84.74
2022-11-05T21:48:56.275Z,85.20
2022-11-05T21:51:41.547Z,84.98
2022-11-05T21:54:28.779Z,85.14
2022-11-05T21:57:14.669Z,85.08
2022-11-05T21:59:52.942Z,86.07
2022-11-05T22:02:23.266Z,87.24
2022-11-05T22:04:54.372Z,86.85
2022-11-05T22:07:24.666Z,86.58
2022-11-05T22:09:52.983Z,85.78
2022-11-05T22:12:21.402Z,85.03
2022-11-05T22:14:49.384Z,85.06
2022-11-05T22:17:17.852Z,85.45
2022-11-05T22:19:46.023Z,85.59
2022-11-05T22:22:15.773Z,85.30
2022-11-05T22:24:44.821Z,85.14
2022-11-05T22:27:15.475Z,84.52
2022-11-05T22:29:44.182Z,83.97
2022-11-05T22:32:12.603Z,83.91
2022-11-05T22:34:40.517Z,83.66
2022-11-05T22:37:09.453Z,83.91
2022-11-05T22:39:38.815Z,83.86
2022-11-05T22:42:08.688Z,84.33
2022-11-05T22:44:37.811Z,84.52
2022-11-05T22:47:06.618Z,84.52
2022-11-05T22:49:34.826Z,84.12
2022-11-05T22:52:02.816Z,84.69
2022-11-05T22:54:35.073Z,85.87
2022-11-05T22:57:07.599Z,86.98
2022-11-05T22:59:35.523Z,89.34
2022-11-05T23:02:09.174Z,91.32
2022-11-05T23:04:38.252Z,90.31
2022-11-05T23:07:27.534Z,88.63
2022-11-05T23:10:13.944Z,88.17
2022-11-05T23:12:44.579Z,87.68
2022-11-05T23:15:34.518Z,87.56
2022-11-05T23:18:20.096Z,87.68
2022-11-05T23:21:06.030Z,87.20
2022-11-05T23:23:59.650Z,87.11
2022-11-05T23:26:44.915Z,86.91
2022-11-05T23:29:14.218Z,87.14
2022-11-05T23:31:59.567Z,87.33
2022-11-05T23:34:27.777Z,87.13
2022-11-05T23:37:13.422Z,87.71
2022-11-05T23:39:42.866Z,89.25
2022-11-05T23:42:28.882Z,89.16
2022-11-05T23:45:16.015Z,89.24
2022-11-05T23:48:01.854Z,88.91
2022-11-05T23:50:34.457Z,90.93
2022-11-05T23:53:06.729Z,91.46
2022-11-05T23:55:34.843Z,90.69
2022-11-05T23:58:02.753Z,89.81
